Portada
METAR-TAF:

METAR-TAF

Aeroports :

Clinton Municipal Airport

Clinton, Iowa, Estats Units d'Amèrica

latitud: 41-50N, longitud: 090-20W, altitud: 216 m

Observació

L'informe es va fer fa 1 hora i 2 minuts, a les 22:56 UTC
Vent 11 kt del Sud
Temperatura 23°C
Humitat 78%
Pressió 1009 hPa
Visibilitat: 16.1 km
Cel ennuvolat a una alçada de 7000 ft

METAR: KCWI 222256Z AUTO 17011KT 10SM BKN070 23/19 A2980 RMK AO2 SLP094 T02280189

Hora: 18:58 (23:58 UTC)


TAF: manca

Observacions i pronòstics meteorològics de més de 4000 aeroports (METAR i TAF).

Les estacions disponibles són els punts grocs i vermells al mapa.

Posi el ratolí al punt desitjat per veure el nom de l'estació.

Feu clic per veure les observacions i els pronòstics meteorològics.

Per canviar el mapa: feu clic els botons verds amb una creu de color negre per apropar; al botó verd amb un guió per allunyar la imatge; o en les fletxes verdes per a mapes adjacents.


METAR-TAF: